Dereham, United Kingdom
Current Conditions -  °F | °C
As of 3:50 PM on Tuesday 21 Oct 2014 (Local Time) from EGSH Reporting Station
Rain Showers Rain Showers  
Wind Chill: 52°   Ceiling: Unl
Heat Index: 52°   Visibility: 6mi
Dew Point: 39°   Wind: 33mph
Humidity: 62%   Direction: 280°W
Pressure: 29.62"   Gusts: 46mph
Location:  52.64°N, 0.97°E
Report Text: EGSH 211450Z 28029G40KT 9999 VCSH FEW018 11/04 Q1003 NOSIG
Loading
Personal Weather Stations






























Interactive Weather Map New forecast layout! Learn more

10-Day Weather Forecast

Advertisements
Track Severe Weather on mobile